sensor_id;sensor_type;location;lat;lon;timestamp;temperature;humidity
11577;DHT22;5844;51.496;6.788;2022-08-01T00:00:28;19.60;99.90
11577;DHT22;5844;51.496;6.788;2022-08-01T00:02:53;19.60;99.90
11577;DHT22;5844;51.496;6.788;2022-08-01T00:05:19;19.60;99.90
11577;DHT22;5844;51.496;6.788;2022-08-01T00:07:45;19.60;99.90
11577;DHT22;5844;51.496;6.788;2022-08-01T00:10:12;19.60;99.90
11577;DHT22;5844;51.496;6.788;2022-08-01T00:12:39;19.60;99.90
11577;DHT22;5844;51.496;6.788;2022-08-01T00:15:07;19.70;99.90
11577;DHT22;5844;51.496;6.788;2022-08-01T00:17:34;19.60;99.90
11577;DHT22;5844;51.496;6.788;2022-08-01T00:20:00;19.60;99.90
11577;DHT22;5844;51.496;6.788;2022-08-01T00:22:27;19.60;99.90
11577;DHT22;5844;51.496;6.788;2022-08-01T00:24:53;19.60;99.90
11577;DHT22;5844;51.496;6.788;2022-08-01T00:27:19;19.60;99.90
11577;DHT22;5844;51.496;6.788;2022-08-01T00:29:44;19.60;99.90
11577;DHT22;5844;51.496;6.788;2022-08-01T00:32:10;19.60;99.90
11577;DHT22;5844;51.496;6.788;2022-08-01T00:34:35;19.50;99.90
11577;DHT22;5844;51.496;6.788;2022-08-01T00:37:01;19.60;99.90
11577;DHT22;5844;51.496;6.788;2022-08-01T00:39:27;19.50;99.90
11577;DHT22;5844;51.496;6.788;2022-08-01T00:41:52;19.60;99.90
11577;DHT22;5844;51.496;6.788;2022-08-01T00:44:18;19.40;99.90
11577;DHT22;5844;51.496;6.788;2022-08-01T00:46:44;19.60;99.90
11577;DHT22;5844;51.496;6.788;2022-08-01T00:49:09;19.60;99.90
11577;DHT22;5844;51.496;6.788;2022-08-01T00:51:35;19.60;99.90
11577;DHT22;5844;51.496;6.788;2022-08-01T00:54:01;19.60;99.90
11577;DHT22;5844;51.496;6.788;2022-08-01T00:56:28;19.60;99.90
11577;DHT22;5844;51.496;6.788;2022-08-01T00:58:55;19.60;99.90
11577;DHT22;5844;51.496;6.788;2022-08-01T01:01:21;19.60;99.90
11577;DHT22;5844;51.496;6.788;2022-08-01T01:03:50;19.60;99.90
11577;DHT22;5844;51.496;6.788;2022-08-01T01:06:44;19.60;99.90
11577;DHT22;5844;51.496;6.788;2022-08-01T01:09:49;19.60;99.90
11577;DHT22;5844;51.496;6.788;2022-08-01T01:17:17;19.50;99.90
11577;DHT22;5844;51.496;6.788;2022-08-01T01:19:50;19.50;99.90
11577;DHT22;5844;51.496;6.788;2022-08-01T01:22:50;19.50;99.90
11577;DHT22;5844;51.496;6.788;2022-08-01T01:25:38;19.60;99.90
11577;DHT22;5844;51.496;6.788;2022-08-01T01:28:29;19.60;99.90
11577;DHT22;5844;51.496;6.788;2022-08-01T01:30:57;19.60;99.90
11577;DHT22;5844;51.496;6.788;2022-08-01T01:33:25;19.60;99.90
11577;DHT22;5844;51.496;6.788;2022-08-01T01:35:59;19.60;99.90
11577;DHT22;5844;51.496;6.788;2022-08-01T01:38:33;19.70;99.90
11577;DHT22;5844;51.496;6.788;2022-08-01T01:41:00;19.70;99.90
11577;DHT22;5844;51.496;6.788;2022-08-01T01:43:27;19.70;99.90
11577;DHT22;5844;51.496;6.788;2022-08-01T01:45:55;19.70;99.90
11577;DHT22;5844;51.496;6.788;2022-08-01T01:48:22;19.80;99.90
11577;DHT22;5844;51.496;6.788;2022-08-01T01:50:49;19.80;99.90
11577;DHT22;5844;51.496;6.788;2022-08-01T01:53:19;19.90;99.90
11577;DHT22;5844;51.496;6.788;2022-08-01T01:55:46;19.80;99.90
11577;DHT22;5844;51.496;6.788;2022-08-01T01:58:15;19.90;99.90
11577;DHT22;5844;51.496;6.788;2022-08-01T02:00:42;20.00;99.90
11577;DHT22;5844;51.496;6.788;2022-08-01T02:03:11;20.00;99.90
11577;DHT22;5844;51.496;6.788;2022-08-01T02:05:38;19.90;99.90
11577;DHT22;5844;51.496;6.788;2022-08-01T02:08:05;19.90;99.90
11577;DHT22;5844;51.496;6.788;2022-08-01T02:10:33;19.90;99.90
11577;DHT22;5844;51.496;6.788;2022-08-01T02:13:02;19.80;99.90
11577;DHT22;5844;51.496;6.788;2022-08-01T02:15:31;19.80;99.90
11577;DHT22;5844;51.496;6.788;2022-08-01T02:17:58;19.80;99.90
11577;DHT22;5844;51.496;6.788;2022-08-01T02:20:27;19.70;99.90
11577;DHT22;5844;51.496;6.788;2022-08-01T02:22:59;19.70;99.90
11577;DHT22;5844;51.496;6.788;2022-08-01T02:25:32;19.80;99.90
11577;DHT22;5844;51.496;6.788;2022-08-01T02:28:04;19.70;99.90
11577;DHT22;5844;51.496;6.788;2022-08-01T02:30:34;19.80;99.90
11577;DHT22;5844;51.496;6.788;2022-08-01T02:35:43;19.80;99.90
11577;DHT22;5844;51.496;6.788;2022-08-01T02:38:12;19.80;99.90
11577;DHT22;5844;51.496;6.788;2022-08-01T02:40:41;19.80;99.90
11577;DHT22;5844;51.496;6.788;2022-08-01T02:43:09;19.90;99.90
11577;DHT22;5844;51.496;6.788;2022-08-01T02:45:39;19.80;99.90
11577;DHT22;5844;51.496;6.788;2022-08-01T02:48:13;19.80;99.90
11577;DHT22;5844;51.496;6.788;2022-08-01T02:50:42;19.80;99.90
11577;DHT22;5844;51.496;6.788;2022-08-01T02:53:08;19.90;99.90
11577;DHT22;5844;51.496;6.788;2022-08-01T02:55:37;19.90;99.90
11577;DHT22;5844;51.496;6.788;2022-08-01T02:58:04;19.90;99.90
11577;DHT22;5844;51.496;6.788;2022-08-01T03:00:33;19.90;99.90
11577;DHT22;5844;51.496;6.788;2022-08-01T03:03:00;20.00;99.90
11577;DHT22;5844;51.496;6.788;2022-08-01T03:05:27;20.00;99.90
11577;DHT22;5844;51.496;6.788;2022-08-01T03:07:55;20.00;99.90
11577;DHT22;5844;51.496;6.788;2022-08-01T03:10:22;20.00;99.90
11577;DHT22;5844;51.496;6.788;2022-08-01T03:12:49;20.00;99.90
11577;DHT22;5844;51.496;6.788;2022-08-01T03:15:17;19.90;99.90
11577;DHT22;5844;51.496;6.788;2022-08-01T03:17:44;19.90;99.90
11577;DHT22;5844;51.496;6.788;2022-08-01T03:20:13;19.90;99.90
11577;DHT22;5844;51.496;6.788;2022-08-01T03:22:40;19.90;99.90
11577;DHT22;5844;51.496;6.788;2022-08-01T03:25:08;19.90;99.90
11577;DHT22;5844;51.496;6.788;2022-08-01T03:27:36;19.90;99.90
11577;DHT22;5844;51.496;6.788;2022-08-01T03:30:04;19.90;99.90
11577;DHT22;5844;51.496;6.788;2022-08-01T03:32:30;19.90;99.90
11577;DHT22;5844;51.496;6.788;2022-08-01T03:34:57;19.80;99.90
11577;DHT22;5844;51.496;6.788;2022-08-01T03:37:26;19.80;99.90
11577;DHT22;5844;51.496;6.788;2022-08-01T03:40:00;19.80;99.90
11577;DHT22;5844;51.496;6.788;2022-08-01T03:42:37;19.80;99.90
11577;DHT22;5844;51.496;6.788;2022-08-01T03:45:08;19.80;99.90
11577;DHT22;5844;51.496;6.788;2022-08-01T03:47:36;19.80;99.90
11577;DHT22;5844;51.496;6.788;2022-08-01T03:50:04;19.80;99.90
11577;DHT22;5844;51.496;6.788;2022-08-01T03:52:32;19.80;99.90
11577;DHT22;5844;51.496;6.788;2022-08-01T03:55:03;19.70;99.90
11577;DHT22;5844;51.496;6.788;2022-08-01T03:57:31;19.70;99.90
11577;DHT22;5844;51.496;6.788;2022-08-01T03:59:58;19.70;99.90
11577;DHT22;5844;51.496;6.788;2022-08-01T04:02:28;19.70;99.90
11577;DHT22;5844;51.496;6.788;2022-08-01T04:04:54;19.70;99.90
11577;DHT22;5844;51.496;6.788;2022-08-01T04:07:22;19.70;99.90
11577;DHT22;5844;51.496;6.788;2022-08-01T04:09:48;19.70;99.90
11577;DHT22;5844;51.496;6.788;2022-08-01T04:12:13;19.70;99.90
11577;DHT22;5844;51.496;6.788;2022-08-01T04:14:39;19.70;99.90
11577;DHT22;5844;51.496;6.788;2022-08-01T04:17:05;19.60;99.90
11577;DHT22;5844;51.496;6.788;2022-08-01T04:19:30;19.60;99.90
11577;DHT22;5844;51.496;6.788;2022-08-01T04:21:56;19.70;99.90
11577;DHT22;5844;51.496;6.788;2022-08-01T04:24:23;19.70;99.90
11577;DHT22;5844;51.496;6.788;2022-08-01T04:26:50;19.70;99.90
11577;DHT22;5844;51.496;6.788;2022-08-01T04:29:17;19.70;99.90
11577;DHT22;5844;51.496;6.788;2022-08-01T04:31:46;19.70;99.90
11577;DHT22;5844;51.496;6.788;2022-08-01T04:34:16;19.80;99.90
11577;DHT22;5844;51.496;6.788;2022-08-01T04:36:44;19.80;99.90
11577;DHT22;5844;51.496;6.788;2022-08-01T04:39:11;19.80;99.90
11577;DHT22;5844;51.496;6.788;2022-08-01T04:41:37;19.80;99.90
11577;DHT22;5844;51.496;6.788;2022-08-01T04:44:04;19.80;99.90
11577;DHT22;5844;51.496;6.788;2022-08-01T04:46:32;19.80;99.90
11577;DHT22;5844;51.496;6.788;2022-08-01T04:48:58;19.80;99.90
11577;DHT22;5844;51.496;6.788;2022-08-01T04:51:25;19.90;99.90
11577;DHT22;5844;51.496;6.788;2022-08-01T04:53:51;19.80;99.90
11577;DHT22;5844;51.496;6.788;2022-08-01T04:56:19;19.80;99.90
11577;DHT22;5844;51.496;6.788;2022-08-01T04:58:46;19.80;99.90
11577;DHT22;5844;51.496;6.788;2022-08-01T05:01:12;19.80;99.90
11577;DHT22;5844;51.496;6.788;2022-08-01T05:03:38;19.80;99.90
11577;DHT22;5844;51.496;6.788;2022-08-01T05:06:04;19.90;99.90
11577;DHT22;5844;51.496;6.788;2022-08-01T05:08:29;19.90;99.90
11577;DHT22;5844;51.496;6.788;2022-08-01T05:10:55;19.90;99.90
11577;DHT22;5844;51.496;6.788;2022-08-01T05:13:21;19.90;99.90
11577;DHT22;5844;51.496;6.788;2022-08-01T05:15:47;19.90;99.90
11577;DHT22;5844;51.496;6.788;2022-08-01T05:18:12;19.90;99.90
11577;DHT22;5844;51.496;6.788;2022-08-01T05:20:38;20.00;99.90
11577;DHT22;5844;51.496;6.788;2022-08-01T05:23:07;20.00;99.90
11577;DHT22;5844;51.496;6.788;2022-08-01T05:25:32;19.90;99.90
11577;DHT22;5844;51.496;6.788;2022-08-01T05:27:58;19.90;99.90
11577;DHT22;5844;51.496;6.788;2022-08-01T05:30:24;19.90;99.90
11577;DHT22;5844;51.496;6.788;2022-08-01T05:32:50;19.80;99.90
11577;DHT22;5844;51.496;6.788;2022-08-01T05:35:15;19.80;99.90
11577;DHT22;5844;51.496;6.788;2022-08-01T05:37:41;19.80;99.90
11577;DHT22;5844;51.496;6.788;2022-08-01T05:40:07;19.80;99.90
11577;DHT22;5844;51.496;6.788;2022-08-01T05:42:33;19.80;99.90
11577;DHT22;5844;51.496;6.788;2022-08-01T05:44:59;19.70;99.90
11577;DHT22;5844;51.496;6.788;2022-08-01T05:47:24;19.70;99.90
11577;DHT22;5844;51.496;6.788;2022-08-01T05:49:50;19.70;99.90
11577;DHT22;5844;51.496;6.788;2022-08-01T05:52:16;19.70;99.90
11577;DHT22;5844;51.496;6.788;2022-08-01T05:54:41;19.80;99.90
11577;DHT22;5844;51.496;6.788;2022-08-01T05:57:07;19.80;99.90
11577;DHT22;5844;51.496;6.788;2022-08-01T05:59:32;19.90;99.90
11577;DHT22;5844;51.496;6.788;2022-08-01T06:01:58;20.00;99.90
11577;DHT22;5844;51.496;6.788;2022-08-01T06:04:24;20.10;99.90
11577;DHT22;5844;51.496;6.788;2022-08-01T06:06:50;20.20;99.90
11577;DHT22;5844;51.496;6.788;2022-08-01T06:09:15;20.30;99.90
11577;DHT22;5844;51.496;6.788;2022-08-01T06:11:41;20.40;99.90
11577;DHT22;5844;51.496;6.788;2022-08-01T06:14:07;20.50;99.90
11577;DHT22;5844;51.496;6.788;2022-08-01T06:16:33;20.60;99.90
11577;DHT22;5844;51.496;6.788;2022-08-01T06:18:58;20.70;99.90
11577;DHT22;5844;51.496;6.788;2022-08-01T06:21:24;20.80;99.90
11577;DHT22;5844;51.496;6.788;2022-08-01T06:23:50;20.90;99.90
11577;DHT22;5844;51.496;6.788;2022-08-01T06:26:19;20.90;99.90
11577;DHT22;5844;51.496;6.788;2022-08-01T06:28:45;21.10;99.90
11577;DHT22;5844;51.496;6.788;2022-08-01T06:31:11;21.30;99.90
11577;DHT22;5844;51.496;6.788;2022-08-01T06:33:39;21.40;99.90
11577;DHT22;5844;51.496;6.788;2022-08-01T06:36:04;21.50;99.90
11577;DHT22;5844;51.496;6.788;2022-08-01T06:38:30;21.60;99.90
11577;DHT22;5844;51.496;6.788;2022-08-01T06:40:56;21.70;99.90
11577;DHT22;5844;51.496;6.788;2022-08-01T06:43:21;21.80;99.90
11577;DHT22;5844;51.496;6.788;2022-08-01T06:45:47;22.00;99.90
11577;DHT22;5844;51.496;6.788;2022-08-01T06:48:13;22.10;99.90
11577;DHT22;5844;51.496;6.788;2022-08-01T06:50:39;22.10;99.90
11577;DHT22;5844;51.496;6.788;2022-08-01T06:53:04;22.10;99.90
11577;DHT22;5844;51.496;6.788;2022-08-01T06:55:30;22.00;99.90
11577;DHT22;5844;51.496;6.788;2022-08-01T06:57:56;21.90;99.90
11577;DHT22;5844;51.496;6.788;2022-08-01T07:00:23;21.90;99.90
11577;DHT22;5844;51.496;6.788;2022-08-01T07:02:51;22.10;99.90
11577;DHT22;5844;51.496;6.788;2022-08-01T07:05:18;22.30;99.90
11577;DHT22;5844;51.496;6.788;2022-08-01T07:07:43;22.40;99.90
11577;DHT22;5844;51.496;6.788;2022-08-01T07:10:09;22.30;99.90
11577;DHT22;5844;51.496;6.788;2022-08-01T07:12:36;22.30;99.90
11577;DHT22;5844;51.496;6.788;2022-08-01T07:15:07;22.20;99.90
11577;DHT22;5844;51.496;6.788;2022-08-01T07:17:37;22.10;99.90
11577;DHT22;5844;51.496;6.788;2022-08-01T07:20:03;22.00;99.90
11577;DHT22;5844;51.496;6.788;2022-08-01T07:22:29;22.10;99.90
11577;DHT22;5844;51.496;6.788;2022-08-01T07:24:55;22.20;99.90
11577;DHT22;5844;51.496;6.788;2022-08-01T07:27:20;22.30;99.90
11577;DHT22;5844;51.496;6.788;2022-08-01T07:29:46;22.50;99.90
11577;DHT22;5844;51.496;6.788;2022-08-01T07:32:12;22.70;99.90
11577;DHT22;5844;51.496;6.788;2022-08-01T07:34:37;22.90;99.90
11577;DHT22;5844;51.496;6.788;2022-08-01T07:37:03;23.00;99.90
11577;DHT22;5844;51.496;6.788;2022-08-01T07:39:29;23.00;99.90
11577;DHT22;5844;51.496;6.788;2022-08-01T07:41:54;23.10;99.90
11577;DHT22;5844;51.496;6.788;2022-08-01T07:44:20;23.00;88.90
11577;DHT22;5844;51.496;6.788;2022-08-01T07:46:46;22.80;99.90
11577;DHT22;5844;51.496;6.788;2022-08-01T07:49:14;22.60;99.90
11577;DHT22;5844;51.496;6.788;2022-08-01T07:51:40;22.50;99.90
11577;DHT22;5844;51.496;6.788;2022-08-01T07:54:06;22.40;99.90
11577;DHT22;5844;51.496;6.788;2022-08-01T07:56:33;22.40;99.90
11577;DHT22;5844;51.496;6.788;2022-08-01T07:58:58;22.70;99.90
11577;DHT22;5844;51.496;6.788;2022-08-01T08:01:24;23.00;99.90
11577;DHT22;5844;51.496;6.788;2022-08-01T08:03:50;23.30;99.80
11577;DHT22;5844;51.496;6.788;2022-08-01T08:06:15;23.50;97.70
11577;DHT22;5844;51.496;6.788;2022-08-01T08:08:41;23.60;54.30
11577;DHT22;5844;51.496;6.788;2022-08-01T08:11:07;23.50;68.20
11577;DHT22;5844;51.496;6.788;2022-08-01T08:13:33;23.30;90.80
11577;DHT22;5844;51.496;6.788;2022-08-01T08:15:59;23.20;97.80
11577;DHT22;5844;51.496;6.788;2022-08-01T08:18:25;23.10;71.90
11577;DHT22;5844;51.496;6.788;2022-08-01T08:20:51;23.00;95.40
11577;DHT22;5844;51.496;6.788;2022-08-01T08:23:17;23.00;85.00
11577;DHT22;5844;51.496;6.788;2022-08-01T08:26:01;22.90;79.00
11577;DHT22;5844;51.496;6.788;2022-08-01T08:28:27;22.90;99.90
11577;DHT22;5844;51.496;6.788;2022-08-01T08:30:53;23.00;99.90
11577;DHT22;5844;51.496;6.788;2022-08-01T08:33:20;23.50;99.90
11577;DHT22;5844;51.496;6.788;2022-08-01T08:35:46;23.90;39.80
11577;DHT22;5844;51.496;6.788;2022-08-01T08:38:12;24.20;36.80
11577;DHT22;5844;51.496;6.788;2022-08-01T08:40:37;24.30;14.60
11577;DHT22;5844;51.496;6.788;2022-08-01T08:43:06;24.30;15.40
11577;DHT22;5844;51.496;6.788;2022-08-01T08:45:33;24.10;13.80
11577;DHT22;5844;51.496;6.788;2022-08-01T08:47:59;24.00;20.10
11577;DHT22;5844;51.496;6.788;2022-08-01T08:50:26;24.00;21.00
11577;DHT22;5844;51.496;6.788;2022-08-01T08:52:54;23.90;22.10
11577;DHT22;5844;51.496;6.788;2022-08-01T08:55:20;24.00;1.00
11577;DHT22;5844;51.496;6.788;2022-08-01T08:57:46;24.30;1.00
11577;DHT22;5844;51.496;6.788;2022-08-01T09:00:13;24.70;1.00
11577;DHT22;5844;51.496;6.788;2022-08-01T09:02:44;25.10;1.00
11577;DHT22;5844;51.496;6.788;2022-08-01T09:05:11;25.20;1.00
11577;DHT22;5844;51.496;6.788;2022-08-01T09:07:37;24.90;1.00
11577;DHT22;5844;51.496;6.788;2022-08-01T09:10:04;24.80;1.00
11577;DHT22;5844;51.496;6.788;2022-08-01T09:12:30;24.80;1.00
11577;DHT22;5844;51.496;6.788;2022-08-01T09:14:56;25.40;1.00
11577;DHT22;5844;51.496;6.788;2022-08-01T09:17:21;25.60;1.00
11577;DHT22;5844;51.496;6.788;2022-08-01T09:19:52;25.60;99.90
11577;DHT22;5844;51.496;6.788;2022-08-01T09:22:20;25.20;1.00
11577;DHT22;5844;51.496;6.788;2022-08-01T09:25:06;24.90;99.90
11577;DHT22;5844;51.496;6.788;2022-08-01T09:27:33;24.40;99.90
11577;DHT22;5844;51.496;6.788;2022-08-01T09:30:14;24.20;1.00
11577;DHT22;5844;51.496;6.788;2022-08-01T09:33:00;24.00;99.90
11577;DHT22;5844;51.496;6.788;2022-08-01T09:37:51;25.20;99.90
11577;DHT22;5844;51.496;6.788;2022-08-01T09:40:21;26.00;99.90
11577;DHT22;5844;51.496;6.788;2022-08-01T09:42:46;26.40;99.90
11577;DHT22;5844;51.496;6.788;2022-08-01T09:45:33;26.30;1.00
11577;DHT22;5844;51.496;6.788;2022-08-01T09:48:06;26.00;99.90
11577;DHT22;5844;51.496;6.788;2022-08-01T09:50:39;26.10;25.90
11577;DHT22;5844;51.496;6.788;2022-08-01T09:53:06;26.20;99.90
11577;DHT22;5844;51.496;6.788;2022-08-01T09:55:31;25.70;99.90
11577;DHT22;5844;51.496;6.788;2022-08-01T09:57:58;25.20;99.90
11577;DHT22;5844;51.496;6.788;2022-08-01T10:00:26;24.70;99.90
11577;DHT22;5844;51.496;6.788;2022-08-01T10:02:52;24.60;99.90
11577;DHT22;5844;51.496;6.788;2022-08-01T10:05:30;25.00;99.90
11577;DHT22;5844;51.496;6.788;2022-08-01T10:07:59;25.60;99.90
11577;DHT22;5844;51.496;6.788;2022-08-01T10:10:26;26.60;99.90
11577;DHT22;5844;51.496;6.788;2022-08-01T10:12:53;27.60;1.00
11577;DHT22;5844;51.496;6.788;2022-08-01T10:15:20;28.30;1.00
11577;DHT22;5844;51.496;6.788;2022-08-01T10:17:53;29.10;1.00
11577;DHT22;5844;51.496;6.788;2022-08-01T10:20:20;29.30;99.90
11577;DHT22;5844;51.496;6.788;2022-08-01T10:22:49;29.20;1.00
11577;DHT22;5844;51.496;6.788;2022-08-01T10:25:18;29.30;1.00
11577;DHT22;5844;51.496;6.788;2022-08-01T10:27:48;30.00;1.00
11577;DHT22;5844;51.496;6.788;2022-08-01T10:30:15;30.40;99.90
11577;DHT22;5844;51.496;6.788;2022-08-01T10:32:41;30.00;99.90
11577;DHT22;5844;51.496;6.788;2022-08-01T10:35:10;29.10;99.90
11577;DHT22;5844;51.496;6.788;2022-08-01T10:37:46;28.00;1.00
11577;DHT22;5844;51.496;6.788;2022-08-01T10:40:13;27.20;1.00
11577;DHT22;5844;51.496;6.788;2022-08-01T10:42:43;26.50;1.00
11577;DHT22;5844;51.496;6.788;2022-08-01T10:45:11;26.20;1.00
11577;DHT22;5844;51.496;6.788;2022-08-01T10:47:46;25.60;78.10
11577;DHT22;5844;51.496;6.788;2022-08-01T10:50:19;25.20;99.90
11577;DHT22;5844;51.496;6.788;2022-08-01T10:53:12;24.80;99.90
11577;DHT22;5844;51.496;6.788;2022-08-01T10:56:08;24.70;99.90
11577;DHT22;5844;51.496;6.788;2022-08-01T10:58:39;24.90;99.90
11577;DHT22;5844;51.496;6.788;2022-08-01T11:01:21;25.10;99.90
11577;DHT22;5844;51.496;6.788;2022-08-01T11:09:23;25.50;99.90
11577;DHT22;5844;51.496;6.788;2022-08-01T11:14:29;25.90;99.90
11577;DHT22;5844;51.496;6.788;2022-08-01T11:16:55;26.10;99.90
11577;DHT22;5844;51.496;6.788;2022-08-01T11:19:21;26.30;99.90
11577;DHT22;5844;51.496;6.788;2022-08-01T11:27:28;26.50;34.80
11577;DHT22;5844;51.496;6.788;2022-08-01T11:32:52;26.30;1.00
11577;DHT22;5844;51.496;6.788;2022-08-01T11:35:19;26.20;1.00
11577;DHT22;5844;51.496;6.788;2022-08-01T11:37:50;26.70;1.00
11577;DHT22;5844;51.496;6.788;2022-08-01T11:40:27;27.50;1.00
11577;DHT22;5844;51.496;6.788;2022-08-01T11:45:54;28.00;1.00
11577;DHT22;5844;51.496;6.788;2022-08-01T11:48:25;28.00;1.00
11577;DHT22;5844;51.496;6.788;2022-08-01T11:50:55;28.30;1.00
11577;DHT22;5844;51.496;6.788;2022-08-01T11:53:22;29.00;99.90
11577;DHT22;5844;51.496;6.788;2022-08-01T11:55:54;29.80;99.90
11577;DHT22;5844;51.496;6.788;2022-08-01T11:58:23;30.10;1.00
11577;DHT22;5844;51.496;6.788;2022-08-01T12:00:57;30.50;1.00
11577;DHT22;5844;51.496;6.788;2022-08-01T12:03:26;30.90;99.90
11577;DHT22;5844;51.496;6.788;2022-08-01T12:05:53;30.80;99.90
11577;DHT22;5844;51.496;6.788;2022-08-01T12:08:27;30.00;1.00
11577;DHT22;5844;51.496;6.788;2022-08-01T12:10:53;28.80;1.00
11577;DHT22;5844;51.496;6.788;2022-08-01T12:13:19;28.20;99.90
11577;DHT22;5844;51.496;6.788;2022-08-01T12:15:45;27.80;1.00
11577;DHT22;5844;51.496;6.788;2022-08-01T12:18:11;27.60;99.90
11577;DHT22;5844;51.496;6.788;2022-08-01T12:20:39;27.40;1.00
11577;DHT22;5844;51.496;6.788;2022-08-01T12:23:09;27.20;1.00
11577;DHT22;5844;51.496;6.788;2022-08-01T12:25:36;26.90;1.00
11577;DHT22;5844;51.496;6.788;2022-08-01T12:28:04;27.50;1.00
11577;DHT22;5844;51.496;6.788;2022-08-01T12:30:30;28.40;1.00
11577;DHT22;5844;51.496;6.788;2022-08-01T12:32:57;28.70;99.90
11577;DHT22;5844;51.496;6.788;2022-08-01T12:35:27;29.00;99.90
11577;DHT22;5844;51.496;6.788;2022-08-01T12:37:55;29.80;99.90
11577;DHT22;5844;51.496;6.788;2022-08-01T12:40:30;31.20;1.00
11577;DHT22;5844;51.496;6.788;2022-08-01T12:42:58;32.30;1.00
11577;DHT22;5844;51.496;6.788;2022-08-01T12:47:58;33.30;1.00
11577;DHT22;5844;51.496;6.788;2022-08-01T12:50:29;33.10;1.00
11577;DHT22;5844;51.496;6.788;2022-08-01T12:52:56;32.10;99.90
11577;DHT22;5844;51.496;6.788;2022-08-01T12:55:26;30.70;1.00
11577;DHT22;5844;51.496;6.788;2022-08-01T12:58:09;29.50;99.90
11577;DHT22;5844;51.496;6.788;2022-08-01T13:00:36;28.80;1.00
11577;DHT22;5844;51.496;6.788;2022-08-01T13:03:17;28.90;99.90
11577;DHT22;5844;51.496;6.788;2022-08-01T13:10:43;31.50;1.00
11577;DHT22;5844;51.496;6.788;2022-08-01T13:13:09;31.90;99.90
11577;DHT22;5844;51.496;6.788;2022-08-01T13:15:37;32.10;1.00
11577;DHT22;5844;51.496;6.788;2022-08-01T13:18:24;31.40;1.00
11577;DHT22;5844;51.496;6.788;2022-08-01T13:23:40;29.80;1.00
11577;DHT22;5844;51.496;6.788;2022-08-01T13:26:05;29.70;1.00
11577;DHT22;5844;51.496;6.788;2022-08-01T13:28:32;29.80;1.00
11577;DHT22;5844;51.496;6.788;2022-08-01T13:31:00;29.10;99.90
11577;DHT22;5844;51.496;6.788;2022-08-01T13:33:38;29.20;99.90
11577;DHT22;5844;51.496;6.788;2022-08-01T13:36:06;29.80;1.00
11577;DHT22;5844;51.496;6.788;2022-08-01T13:38:32;31.40;99.90
11577;DHT22;5844;51.496;6.788;2022-08-01T13:41:16;32.10;1.00
11577;DHT22;5844;51.496;6.788;2022-08-01T13:43:41;33.00;99.90
11577;DHT22;5844;51.496;6.788;2022-08-01T13:46:07;32.60;1.00
11577;DHT22;5844;51.496;6.788;2022-08-01T13:48:33;31.90;99.90
11577;DHT22;5844;51.496;6.788;2022-08-01T13:50:59;31.10;99.90
11577;DHT22;5844;51.496;6.788;2022-08-01T13:53:25;30.60;1.00
11577;DHT22;5844;51.496;6.788;2022-08-01T13:55:51;30.60;99.90
11577;DHT22;5844;51.496;6.788;2022-08-01T13:58:16;30.70;85.00
11577;DHT22;5844;51.496;6.788;2022-08-01T14:00:42;30.30;1.00
11577;DHT22;5844;51.496;6.788;2022-08-01T14:03:08;29.50;99.90
11577;DHT22;5844;51.496;6.788;2022-08-01T14:05:35;28.80;1.00
11577;DHT22;5844;51.496;6.788;2022-08-01T14:08:01;28.30;1.00
11577;DHT22;5844;51.496;6.788;2022-08-01T14:10:27;27.90;99.90
11577;DHT22;5844;51.496;6.788;2022-08-01T14:12:55;27.60;99.90
11577;DHT22;5844;51.496;6.788;2022-08-01T14:15:20;27.30;99.90
11577;DHT22;5844;51.496;6.788;2022-08-01T14:17:46;27.80;1.00
11577;DHT22;5844;51.496;6.788;2022-08-01T14:20:12;28.50;1.00
11577;DHT22;5844;51.496;6.788;2022-08-01T14:22:37;28.60;1.00
11577;DHT22;5844;51.496;6.788;2022-08-01T14:25:05;28.20;99.90
11577;DHT22;5844;51.496;6.788;2022-08-01T14:27:31;27.90;99.90
11577;DHT22;5844;51.496;6.788;2022-08-01T14:29:58;27.50;99.90
11577;DHT22;5844;51.496;6.788;2022-08-01T14:32:24;27.20;1.00
11577;DHT22;5844;51.496;6.788;2022-08-01T14:34:50;27.00;1.00
11577;DHT22;5844;51.496;6.788;2022-08-01T14:37:15;27.10;1.00
11577;DHT22;5844;51.496;6.788;2022-08-01T14:39:41;27.10;1.00
11577;DHT22;5844;51.496;6.788;2022-08-01T14:42:06;27.30;1.00
11577;DHT22;5844;51.496;6.788;2022-08-01T14:44:32;27.30;99.90
11577;DHT22;5844;51.496;6.788;2022-08-01T14:46:58;27.40;99.90
11577;DHT22;5844;51.496;6.788;2022-08-01T14:49:24;27.30;1.00
11577;DHT22;5844;51.496;6.788;2022-08-01T14:51:49;27.30;99.90
11577;DHT22;5844;51.496;6.788;2022-08-01T14:54:15;27.40;99.90
11577;DHT22;5844;51.496;6.788;2022-08-01T14:56:40;27.50;99.90
11577;DHT22;5844;51.496;6.788;2022-08-01T14:59:06;27.40;99.90
11577;DHT22;5844;51.496;6.788;2022-08-01T15:01:32;27.30;99.90
11577;DHT22;5844;51.496;6.788;2022-08-01T15:03:57;27.00;99.90
11577;DHT22;5844;51.496;6.788;2022-08-01T15:06:23;26.90;1.00
11577;DHT22;5844;51.496;6.788;2022-08-01T15:08:49;26.90;99.90
11577;DHT22;5844;51.496;6.788;2022-08-01T15:11:14;26.90;99.90
11577;DHT22;5844;51.496;6.788;2022-08-01T15:13:40;26.90;99.90
11577;DHT22;5844;51.496;6.788;2022-08-01T15:16:06;26.90;99.90
11577;DHT22;5844;51.496;6.788;2022-08-01T15:18:31;26.90;99.90
11577;DHT22;5844;51.496;6.788;2022-08-01T15:20:57;27.70;1.00
11577;DHT22;5844;51.496;6.788;2022-08-01T15:23:23;28.80;99.90
11577;DHT22;5844;51.496;6.788;2022-08-01T15:25:49;29.10;1.00
11577;DHT22;5844;51.496;6.788;2022-08-01T15:28:14;28.90;1.00
11577;DHT22;5844;51.496;6.788;2022-08-01T15:30:40;28.80;99.90
11577;DHT22;5844;51.496;6.788;2022-08-01T15:33:06;29.60;99.90
11577;DHT22;5844;51.496;6.788;2022-08-01T15:35:32;31.10;1.00
11577;DHT22;5844;51.496;6.788;2022-08-01T15:37:58;31.90;99.90
11577;DHT22;5844;51.496;6.788;2022-08-01T15:40:24;31.30;99.60
11577;DHT22;5844;51.496;6.788;2022-08-01T15:42:50;30.20;78.90
11577;DHT22;5844;51.496;6.788;2022-08-01T15:45:17;29.30;1.00
11577;DHT22;5844;51.496;6.788;2022-08-01T15:47:45;28.70;1.00
11577;DHT22;5844;51.496;6.788;2022-08-01T15:50:11;28.20;1.00
11577;DHT22;5844;51.496;6.788;2022-08-01T15:52:36;28.00;2.70
11577;DHT22;5844;51.496;6.788;2022-08-01T15:55:03;27.70;1.00
11577;DHT22;5844;51.496;6.788;2022-08-01T15:57:28;27.70;84.20
11577;DHT22;5844;51.496;6.788;2022-08-01T15:59:54;28.20;43.20
11577;DHT22;5844;51.496;6.788;2022-08-01T16:02:20;28.40;1.00
11577;DHT22;5844;51.496;6.788;2022-08-01T16:04:46;28.20;1.00
11577;DHT22;5844;51.496;6.788;2022-08-01T16:07:12;27.80;50.80
11577;DHT22;5844;51.496;6.788;2022-08-01T16:09:38;27.70;99.90
11577;DHT22;5844;51.496;6.788;2022-08-01T16:12:03;27.70;99.90
11577;DHT22;5844;51.496;6.788;2022-08-01T16:14:29;27.70;99.90
11577;DHT22;5844;51.496;6.788;2022-08-01T16:16:55;27.80;1.00
11577;DHT22;5844;51.496;6.788;2022-08-01T16:19:21;28.00;1.10
11577;DHT22;5844;51.496;6.788;2022-08-01T16:21:46;27.80;1.00
11577;DHT22;5844;51.496;6.788;2022-08-01T16:24:12;27.60;1.00
11577;DHT22;5844;51.496;6.788;2022-08-01T16:26:38;27.50;62.70
11577;DHT22;5844;51.496;6.788;2022-08-01T16:29:03;27.50;48.10
11577;DHT22;5844;51.496;6.788;2022-08-01T16:31:29;28.40;99.90
11577;DHT22;5844;51.496;6.788;2022-08-01T16:33:56;29.70;99.90